sensor_id;sensor_type;location;lat;lon;timestamp;P1;durP1;ratioP1;P2;durP2;ratioP2
50417;SDS011;36346;48.280;14.292;2023-05-07T00:02:24;4.83;;;4.83;;
50417;SDS011;36346;48.280;14.292;2023-05-07T00:04:53;4.31;;;4.31;;
50417;SDS011;36346;48.280;14.292;2023-05-07T00:07:21;4.24;;;4.24;;
50417;SDS011;36346;48.280;14.292;2023-05-07T00:09:49;4.39;;;4.39;;
50417;SDS011;36346;48.280;14.292;2023-05-07T00:12:17;4.31;;;4.31;;
50417;SDS011;36346;48.280;14.292;2023-05-07T00:14:45;3.83;;;3.83;;
50417;SDS011;36346;48.280;14.292;2023-05-07T00:17:13;3.98;;;3.98;;
50417;SDS011;36346;48.280;14.292;2023-05-07T00:19:41;4.11;;;4.11;;
50417;SDS011;36346;48.280;14.292;2023-05-07T00:22:09;3.93;;;3.93;;
50417;SDS011;36346;48.280;14.292;2023-05-07T00:24:37;4.01;;;4.01;;
50417;SDS011;36346;48.280;14.292;2023-05-07T00:27:05;4.09;;;4.09;;
50417;SDS011;36346;48.280;14.292;2023-05-07T00:29:33;4.02;;;4.02;;
50417;SDS011;36346;48.280;14.292;2023-05-07T00:32:01;4.12;;;4.12;;
50417;SDS011;36346;48.280;14.292;2023-05-07T00:34:29;3.91;;;3.91;;
50417;SDS011;36346;48.280;14.292;2023-05-07T00:36:57;4.20;;;4.20;;
50417;SDS011;36346;48.280;14.292;2023-05-07T00:39:25;4.05;;;4.05;;
50417;SDS011;36346;48.280;14.292;2023-05-07T00:41:53;4.04;;;4.04;;
50417;SDS011;36346;48.280;14.292;2023-05-07T00:44:21;4.15;;;4.15;;
50417;SDS011;36346;48.280;14.292;2023-05-07T00:46:49;4.50;;;4.50;;
50417;SDS011;36346;48.280;14.292;2023-05-07T00:49:17;4.17;;;4.17;;
50417;SDS011;36346;48.280;14.292;2023-05-07T00:51:46;4.27;;;4.27;;
50417;SDS011;36346;48.280;14.292;2023-05-07T00:54:14;4.74;;;4.74;;
50417;SDS011;36346;48.280;14.292;2023-05-07T00:56:42;4.70;;;4.70;;
50417;SDS011;36346;48.280;14.292;2023-05-07T00:59:10;4.76;;;4.76;;
50417;SDS011;36346;48.280;14.292;2023-05-07T01:01:38;4.56;;;4.56;;
50417;SDS011;36346;48.280;14.292;2023-05-07T01:04:06;4.47;;;4.47;;
50417;SDS011;36346;48.280;14.292;2023-05-07T01:06:35;4.43;;;4.43;;
50417;SDS011;36346;48.280;14.292;2023-05-07T01:09:04;4.24;;;4.24;;
50417;SDS011;36346;48.280;14.292;2023-05-07T01:11:32;4.41;;;4.41;;
50417;SDS011;36346;48.280;14.292;2023-05-07T01:14:00;4.30;;;4.30;;
50417;SDS011;36346;48.280;14.292;2023-05-07T01:16:29;4.55;;;4.55;;
50417;SDS011;36346;48.280;14.292;2023-05-07T01:18:57;4.13;;;4.13;;
50417;SDS011;36346;48.280;14.292;2023-05-07T01:21:25;3.93;;;3.93;;
50417;SDS011;36346;48.280;14.292;2023-05-07T01:23:57;3.99;;;3.99;;
50417;SDS011;36346;48.280;14.292;2023-05-07T01:26:27;3.82;;;3.82;;
50417;SDS011;36346;48.280;14.292;2023-05-07T01:28:54;3.82;;;3.82;;
50417;SDS011;36346;48.280;14.292;2023-05-07T01:31:23;3.77;;;3.77;;
50417;SDS011;36346;48.280;14.292;2023-05-07T01:33:52;3.67;;;3.67;;
50417;SDS011;36346;48.280;14.292;2023-05-07T01:36:22;3.89;;;3.89;;
50417;SDS011;36346;48.280;14.292;2023-05-07T01:38:53;3.54;;;3.54;;
50417;SDS011;36346;48.280;14.292;2023-05-07T01:41:22;3.57;;;3.57;;
50417;SDS011;36346;48.280;14.292;2023-05-07T01:43:50;3.45;;;3.45;;
50417;SDS011;36346;48.280;14.292;2023-05-07T01:46:19;3.40;;;3.40;;
50417;SDS011;36346;48.280;14.292;2023-05-07T01:48:47;3.57;;;3.57;;
50417;SDS011;36346;48.280;14.292;2023-05-07T01:51:17;3.29;;;3.29;;
50417;SDS011;36346;48.280;14.292;2023-05-07T01:53:47;3.18;;;3.18;;
50417;SDS011;36346;48.280;14.292;2023-05-07T01:56:19;3.45;;;3.45;;
50417;SDS011;36346;48.280;14.292;2023-05-07T01:58:48;3.29;;;3.29;;
50417;SDS011;36346;48.280;14.292;2023-05-07T02:01:18;3.34;;;3.34;;
50417;SDS011;36346;48.280;14.292;2023-05-07T02:03:47;3.30;;;3.30;;
50417;SDS011;36346;48.280;14.292;2023-05-07T02:06:22;3.56;;;3.56;;
50417;SDS011;36346;48.280;14.292;2023-05-07T02:08:55;3.59;;;3.59;;
50417;SDS011;36346;48.280;14.292;2023-05-07T02:11:22;3.45;;;3.45;;
50417;SDS011;36346;48.280;14.292;2023-05-07T02:13:51;3.60;;;3.60;;
50417;SDS011;36346;48.280;14.292;2023-05-07T02:16:20;3.42;;;3.42;;
50417;SDS011;36346;48.280;14.292;2023-05-07T02:18:50;3.59;;;3.59;;
50417;SDS011;36346;48.280;14.292;2023-05-07T02:21:18;3.72;;;3.72;;
50417;SDS011;36346;48.280;14.292;2023-05-07T02:23:46;3.58;;;3.58;;
50417;SDS011;36346;48.280;14.292;2023-05-07T02:26:14;4.19;;;4.19;;
50417;SDS011;36346;48.280;14.292;2023-05-07T02:28:42;4.02;;;4.02;;
50417;SDS011;36346;48.280;14.292;2023-05-07T02:31:10;3.98;;;3.98;;
50417;SDS011;36346;48.280;14.292;2023-05-07T02:33:38;4.16;;;4.16;;
50417;SDS011;36346;48.280;14.292;2023-05-07T02:36:09;4.23;;;4.23;;
50417;SDS011;36346;48.280;14.292;2023-05-07T02:38:59;3.75;;;3.75;;
50417;SDS011;36346;48.280;14.292;2023-05-07T02:41:28;4.19;;;4.19;;
50417;SDS011;36346;48.280;14.292;2023-05-07T02:43:56;4.01;;;4.01;;
50417;SDS011;36346;48.280;14.292;2023-05-07T02:46:24;3.58;;;3.58;;
50417;SDS011;36346;48.280;14.292;2023-05-07T02:48:59;3.56;;;3.56;;
50417;SDS011;36346;48.280;14.292;2023-05-07T02:51:27;3.62;;;3.62;;
50417;SDS011;36346;48.280;14.292;2023-05-07T02:53:58;3.76;;;3.76;;
50417;SDS011;36346;48.280;14.292;2023-05-07T02:56:26;3.60;;;3.60;;
50417;SDS011;36346;48.280;14.292;2023-05-07T02:58:54;3.76;;;3.76;;
50417;SDS011;36346;48.280;14.292;2023-05-07T03:01:25;3.77;;;3.77;;
50417;SDS011;36346;48.280;14.292;2023-05-07T03:04:01;3.77;;;3.77;;
50417;SDS011;36346;48.280;14.292;2023-05-07T03:06:30;4.54;;;4.54;;
50417;SDS011;36346;48.280;14.292;2023-05-07T03:08:58;4.30;;;4.30;;
50417;SDS011;36346;48.280;14.292;2023-05-07T03:11:26;4.48;;;4.48;;
50417;SDS011;36346;48.280;14.292;2023-05-07T03:13:54;4.60;;;4.60;;
50417;SDS011;36346;48.280;14.292;2023-05-07T03:16:22;4.53;;;4.53;;
50417;SDS011;36346;48.280;14.292;2023-05-07T03:18:50;4.35;;;4.35;;
50417;SDS011;36346;48.280;14.292;2023-05-07T03:21:18;4.77;;;4.77;;
50417;SDS011;36346;48.280;14.292;2023-05-07T03:23:46;4.92;;;4.92;;
50417;SDS011;36346;48.280;14.292;2023-05-07T03:26:14;4.42;;;4.42;;
50417;SDS011;36346;48.280;14.292;2023-05-07T03:28:44;5.63;;;5.63;;
50417;SDS011;36346;48.280;14.292;2023-05-07T03:31:14;6.33;;;6.33;;
50417;SDS011;36346;48.280;14.292;2023-05-07T03:33:55;5.52;;;5.52;;
50417;SDS011;36346;48.280;14.292;2023-05-07T03:36:26;5.80;;;5.80;;
50417;SDS011;36346;48.280;14.292;2023-05-07T03:38:57;6.00;;;6.00;;
50417;SDS011;36346;48.280;14.292;2023-05-07T03:41:29;5.64;;;5.64;;
50417;SDS011;36346;48.280;14.292;2023-05-07T03:43:57;5.46;;;5.46;;
50417;SDS011;36346;48.280;14.292;2023-05-07T03:46:25;5.61;;;5.61;;
50417;SDS011;36346;48.280;14.292;2023-05-07T03:48:55;5.30;;;5.30;;
50417;SDS011;36346;48.280;14.292;2023-05-07T03:51:24;5.32;;;5.32;;
50417;SDS011;36346;48.280;14.292;2023-05-07T03:53:53;5.28;;;5.28;;
50417;SDS011;36346;48.280;14.292;2023-05-07T03:56:22;5.10;;;5.10;;
50417;SDS011;36346;48.280;14.292;2023-05-07T03:58:55;5.37;;;5.37;;
50417;SDS011;36346;48.280;14.292;2023-05-07T04:01:22;5.41;;;5.41;;
50417;SDS011;36346;48.280;14.292;2023-05-07T04:03:51;5.34;;;5.34;;
50417;SDS011;36346;48.280;14.292;2023-05-07T04:06:19;5.39;;;5.39;;
50417;SDS011;36346;48.280;14.292;2023-05-07T04:08:49;5.10;;;5.10;;
50417;SDS011;36346;48.280;14.292;2023-05-07T04:11:17;5.05;;;5.05;;
50417;SDS011;36346;48.280;14.292;2023-05-07T04:13:46;5.24;;;5.24;;
50417;SDS011;36346;48.280;14.292;2023-05-07T04:16:16;5.52;;;5.52;;
50417;SDS011;36346;48.280;14.292;2023-05-07T04:18:44;5.14;;;5.14;;
50417;SDS011;36346;48.280;14.292;2023-05-07T04:21:15;5.32;;;5.32;;
50417;SDS011;36346;48.280;14.292;2023-05-07T04:23:44;5.19;;;5.19;;
50417;SDS011;36346;48.280;14.292;2023-05-07T04:26:14;5.59;;;5.59;;
50417;SDS011;36346;48.280;14.292;2023-05-07T04:28:44;5.96;;;5.96;;
50417;SDS011;36346;48.280;14.292;2023-05-07T04:31:12;5.95;;;5.95;;
50417;SDS011;36346;48.280;14.292;2023-05-07T04:33:40;6.13;;;6.13;;
50417;SDS011;36346;48.280;14.292;2023-05-07T04:36:11;5.61;;;5.61;;
50417;SDS011;36346;48.280;14.292;2023-05-07T04:38:47;6.09;;;6.09;;
50417;SDS011;36346;48.280;14.292;2023-05-07T04:41:17;5.75;;;5.75;;
50417;SDS011;36346;48.280;14.292;2023-05-07T04:43:45;6.27;;;6.27;;
50417;SDS011;36346;48.280;14.292;2023-05-07T04:46:15;6.68;;;6.68;;
50417;SDS011;36346;48.280;14.292;2023-05-07T04:48:44;6.58;;;6.58;;
50417;SDS011;36346;48.280;14.292;2023-05-07T04:51:12;6.65;;;6.65;;
50417;SDS011;36346;48.280;14.292;2023-05-07T04:53:40;6.63;;;6.63;;
50417;SDS011;36346;48.280;14.292;2023-05-07T04:56:09;6.42;;;6.42;;
50417;SDS011;36346;48.280;14.292;2023-05-07T04:58:42;6.55;;;6.55;;
50417;SDS011;36346;48.280;14.292;2023-05-07T05:01:10;6.52;;;6.52;;
50417;SDS011;36346;48.280;14.292;2023-05-07T05:03:39;6.40;;;6.40;;
50417;SDS011;36346;48.280;14.292;2023-05-07T05:06:08;6.27;;;6.27;;
50417;SDS011;36346;48.280;14.292;2023-05-07T05:08:36;6.62;;;6.62;;
50417;SDS011;36346;48.280;14.292;2023-05-07T05:11:05;6.30;;;6.30;;
50417;SDS011;36346;48.280;14.292;2023-05-07T05:13:34;6.47;;;6.47;;
50417;SDS011;36346;48.280;14.292;2023-05-07T05:16:09;6.87;;;6.87;;
50417;SDS011;36346;48.280;14.292;2023-05-07T05:18:38;6.84;;;6.84;;
50417;SDS011;36346;48.280;14.292;2023-05-07T05:21:08;6.88;;;6.88;;
50417;SDS011;36346;48.280;14.292;2023-05-07T05:23:36;7.68;;;7.68;;
50417;SDS011;36346;48.280;14.292;2023-05-07T05:26:04;7.95;;;7.95;;
50417;SDS011;36346;48.280;14.292;2023-05-07T05:28:33;7.99;;;7.99;;
50417;SDS011;36346;48.280;14.292;2023-05-07T05:31:02;8.64;;;8.64;;
50417;SDS011;36346;48.280;14.292;2023-05-07T05:33:34;9.39;;;9.39;;
50417;SDS011;36346;48.280;14.292;2023-05-07T05:36:04;9.59;;;9.59;;
50417;SDS011;36346;48.280;14.292;2023-05-07T05:38:33;9.91;;;9.91;;
50417;SDS011;36346;48.280;14.292;2023-05-07T05:41:02;9.42;;;9.42;;
50417;SDS011;36346;48.280;14.292;2023-05-07T05:43:30;9.21;;;9.21;;
50417;SDS011;36346;48.280;14.292;2023-05-07T05:45:59;10.20;;;10.20;;
50417;SDS011;36346;48.280;14.292;2023-05-07T05:48:29;9.83;;;9.83;;
50417;SDS011;36346;48.280;14.292;2023-05-07T05:50:59;8.94;;;8.94;;
50417;SDS011;36346;48.280;14.292;2023-05-07T05:53:27;9.27;;;9.27;;
50417;SDS011;36346;48.280;14.292;2023-05-07T05:55:55;8.33;;;8.33;;
50417;SDS011;36346;48.280;14.292;2023-05-07T05:58:23;8.41;;;8.41;;
50417;SDS011;36346;48.280;14.292;2023-05-07T06:00:56;8.22;;;8.22;;
50417;SDS011;36346;48.280;14.292;2023-05-07T06:03:27;8.80;;;8.80;;
50417;SDS011;36346;48.280;14.292;2023-05-07T06:05:57;9.61;;;9.61;;
50417;SDS011;36346;48.280;14.292;2023-05-07T06:08:28;9.33;;;9.33;;
50417;SDS011;36346;48.280;14.292;2023-05-07T06:10:58;9.18;;;9.17;;
50417;SDS011;36346;48.280;14.292;2023-05-07T06:13:27;9.25;;;9.25;;
50417;SDS011;36346;48.280;14.292;2023-05-07T06:15:55;14.62;;;14.62;;
50417;SDS011;36346;48.280;14.292;2023-05-07T06:18:23;13.92;;;13.92;;
50417;SDS011;36346;48.280;14.292;2023-05-07T06:20:51;18.78;;;18.70;;
50417;SDS011;36346;48.280;14.292;2023-05-07T06:23:25;20.16;;;20.14;;
50417;SDS011;36346;48.280;14.292;2023-05-07T06:25:53;11.65;;;11.65;;
50417;SDS011;36346;48.280;14.292;2023-05-07T06:28:25;11.64;;;11.64;;
50417;SDS011;36346;48.280;14.292;2023-05-07T06:30:53;15.44;;;15.44;;
50417;SDS011;36346;48.280;14.292;2023-05-07T06:33:21;14.81;;;14.81;;
50417;SDS011;36346;48.280;14.292;2023-05-07T06:35:49;16.51;;;16.51;;
50417;SDS011;36346;48.280;14.292;2023-05-07T06:38:17;18.03;;;18.03;;
50417;SDS011;36346;48.280;14.292;2023-05-07T06:40:48;16.75;;;16.75;;
50417;SDS011;36346;48.280;14.292;2023-05-07T06:43:17;15.08;;;15.08;;
50417;SDS011;36346;48.280;14.292;2023-05-07T06:45:54;13.92;;;13.92;;
50417;SDS011;36346;48.280;14.292;2023-05-07T06:48:22;10.81;;;10.81;;
50417;SDS011;36346;48.280;14.292;2023-05-07T06:51:00;7.90;;;7.90;;
50417;SDS011;36346;48.280;14.292;2023-05-07T06:53:29;6.92;;;6.92;;
50417;SDS011;36346;48.280;14.292;2023-05-07T06:56:00;6.57;;;6.57;;
50417;SDS011;36346;48.280;14.292;2023-05-07T06:58:28;6.38;;;6.38;;
50417;SDS011;36346;48.280;14.292;2023-05-07T07:00:55;6.22;;;6.22;;
50417;SDS011;36346;48.280;14.292;2023-05-07T07:03:24;7.24;;;7.24;;
50417;SDS011;36346;48.280;14.292;2023-05-07T07:05:54;7.33;;;7.33;;
50417;SDS011;36346;48.280;14.292;2023-05-07T07:08:23;9.62;;;9.62;;
50417;SDS011;36346;48.280;14.292;2023-05-07T07:10:52;11.47;;;11.47;;
50417;SDS011;36346;48.280;14.292;2023-05-07T07:13:20;9.79;;;9.79;;
50417;SDS011;36346;48.280;14.292;2023-05-07T07:15:48;8.71;;;8.71;;
50417;SDS011;36346;48.280;14.292;2023-05-07T07:18:17;8.89;;;8.89;;
50417;SDS011;36346;48.280;14.292;2023-05-07T07:20:47;9.10;;;9.10;;
50417;SDS011;36346;48.280;14.292;2023-05-07T07:23:15;9.59;;;9.59;;
50417;SDS011;36346;48.280;14.292;2023-05-07T07:25:43;11.22;;;11.22;;
50417;SDS011;36346;48.280;14.292;2023-05-07T07:28:11;11.15;;;11.15;;
50417;SDS011;36346;48.280;14.292;2023-05-07T07:30:40;10.05;;;10.05;;
50417;SDS011;36346;48.280;14.292;2023-05-07T07:33:08;8.89;;;8.89;;
50417;SDS011;36346;48.280;14.292;2023-05-07T07:35:37;9.46;;;9.46;;
50417;SDS011;36346;48.280;14.292;2023-05-07T07:38:06;12.17;;;12.17;;
50417;SDS011;36346;48.280;14.292;2023-05-07T07:40:34;11.97;;;11.97;;
50417;SDS011;36346;48.280;14.292;2023-05-07T07:43:03;11.93;;;11.93;;
50417;SDS011;36346;48.280;14.292;2023-05-07T07:45:32;14.63;;;14.62;;
50417;SDS011;36346;48.280;14.292;2023-05-07T07:48:01;14.15;;;14.12;;
50417;SDS011;36346;48.280;14.292;2023-05-07T07:50:32;10.07;;;10.07;;
50417;SDS011;36346;48.280;14.292;2023-05-07T07:53:13;8.65;;;8.64;;
50417;SDS011;36346;48.280;14.292;2023-05-07T07:55:42;8.03;;;8.03;;
50417;SDS011;36346;48.280;14.292;2023-05-07T07:58:13;9.06;;;9.06;;
50417;SDS011;36346;48.280;14.292;2023-05-07T08:00:41;9.16;;;9.16;;
50417;SDS011;36346;48.280;14.292;2023-05-07T08:03:09;13.19;;;13.16;;
50417;SDS011;36346;48.280;14.292;2023-05-07T08:05:42;12.25;;;12.19;;
50417;SDS011;36346;48.280;14.292;2023-05-07T08:08:10;13.72;;;13.72;;
50417;SDS011;36346;48.280;14.292;2023-05-07T08:10:40;10.54;;;10.53;;
50417;SDS011;36346;48.280;14.292;2023-05-07T08:13:15;10.71;;;10.71;;
50417;SDS011;36346;48.280;14.292;2023-05-07T08:15:44;11.67;;;11.67;;
50417;SDS011;36346;48.280;14.292;2023-05-07T08:18:14;12.59;;;12.49;;
50417;SDS011;36346;48.280;14.292;2023-05-07T08:20:43;11.48;;;11.41;;
50417;SDS011;36346;48.280;14.292;2023-05-07T08:23:15;10.47;;;10.47;;
50417;SDS011;36346;48.280;14.292;2023-05-07T08:25:45;10.60;;;10.60;;
50417;SDS011;36346;48.280;14.292;2023-05-07T08:28:14;9.68;;;9.67;;
50417;SDS011;36346;48.280;14.292;2023-05-07T08:30:42;11.60;;;11.60;;
50417;SDS011;36346;48.280;14.292;2023-05-07T08:33:11;9.07;;;9.07;;
50417;SDS011;36346;48.280;14.292;2023-05-07T08:35:39;8.18;;;8.18;;
50417;SDS011;36346;48.280;14.292;2023-05-07T08:38:08;9.70;;;9.70;;
50417;SDS011;36346;48.280;14.292;2023-05-07T08:40:37;8.87;;;8.87;;
50417;SDS011;36346;48.280;14.292;2023-05-07T08:43:13;7.84;;;7.84;;
50417;SDS011;36346;48.280;14.292;2023-05-07T08:45:45;7.85;;;7.85;;
50417;SDS011;36346;48.280;14.292;2023-05-07T08:48:16;7.06;;;7.06;;
50417;SDS011;36346;48.280;14.292;2023-05-07T08:50:53;7.83;;;7.83;;
50417;SDS011;36346;48.280;14.292;2023-05-07T08:53:22;7.37;;;7.37;;
50417;SDS011;36346;48.280;14.292;2023-05-07T08:55:51;7.92;;;7.92;;
50417;SDS011;36346;48.280;14.292;2023-05-07T08:58:19;7.26;;;7.26;;
50417;SDS011;36346;48.280;14.292;2023-05-07T09:00:47;7.98;;;7.98;;
50417;SDS011;36346;48.280;14.292;2023-05-07T09:03:16;8.87;;;8.87;;
50417;SDS011;36346;48.280;14.292;2023-05-07T09:05:48;8.19;;;8.19;;
50417;SDS011;36346;48.280;14.292;2023-05-07T09:08:18;7.80;;;7.80;;
50417;SDS011;36346;48.280;14.292;2023-05-07T09:10:48;7.75;;;7.75;;
50417;SDS011;36346;48.280;14.292;2023-05-07T09:13:16;8.09;;;8.09;;
50417;SDS011;36346;48.280;14.292;2023-05-07T09:15:46;7.81;;;7.81;;
50417;SDS011;36346;48.280;14.292;2023-05-07T09:18:14;7.86;;;7.86;;
50417;SDS011;36346;48.280;14.292;2023-05-07T09:20:45;7.99;;;7.99;;
50417;SDS011;36346;48.280;14.292;2023-05-07T09:23:13;7.82;;;7.82;;
50417;SDS011;36346;48.280;14.292;2023-05-07T09:25:43;8.11;;;8.11;;
50417;SDS011;36346;48.280;14.292;2023-05-07T09:28:24;8.70;;;8.70;;
50417;SDS011;36346;48.280;14.292;2023-05-07T09:30:52;8.39;;;8.39;;
50417;SDS011;36346;48.280;14.292;2023-05-07T09:33:20;9.25;;;9.25;;
50417;SDS011;36346;48.280;14.292;2023-05-07T09:35:52;8.98;;;8.98;;
50417;SDS011;36346;48.280;14.292;2023-05-07T09:38:21;9.26;;;9.26;;
50417;SDS011;36346;48.280;14.292;2023-05-07T09:41:29;9.28;;;9.28;;
50417;SDS011;36346;48.280;14.292;2023-05-07T09:44:09;8.56;;;8.56;;
50417;SDS011;36346;48.280;14.292;2023-05-07T09:46:43;9.00;;;9.00;;
50417;SDS011;36346;48.280;14.292;2023-05-07T09:49:23;8.28;;;8.28;;
50417;SDS011;36346;48.280;14.292;2023-05-07T09:52:00;8.48;;;8.48;;
50417;SDS011;36346;48.280;14.292;2023-05-07T09:54:31;8.15;;;8.15;;
50417;SDS011;36346;48.280;14.292;2023-05-07T09:57:01;8.33;;;8.33;;
50417;SDS011;36346;48.280;14.292;2023-05-07T09:59:31;7.85;;;7.85;;
50417;SDS011;36346;48.280;14.292;2023-05-07T10:02:04;8.00;;;8.00;;
50417;SDS011;36346;48.280;14.292;2023-05-07T10:04:39;8.14;;;8.14;;
50417;SDS011;36346;48.280;14.292;2023-05-07T10:07:08;8.18;;;8.18;;
50417;SDS011;36346;48.280;14.292;2023-05-07T10:09:37;9.96;;;9.96;;
50417;SDS011;36346;48.280;14.292;2023-05-07T10:12:10;9.34;;;9.34;;
50417;SDS011;36346;48.280;14.292;2023-05-07T10:14:39;9.52;;;9.52;;
50417;SDS011;36346;48.280;14.292;2023-05-07T10:17:08;9.80;;;9.80;;
50417;SDS011;36346;48.280;14.292;2023-05-07T10:19:43;8.75;;;8.75;;
50417;SDS011;36346;48.280;14.292;2023-05-07T10:22:13;8.78;;;8.78;;
50417;SDS011;36346;48.280;14.292;2023-05-07T10:24:44;9.78;;;9.78;;
50417;SDS011;36346;48.280;14.292;2023-05-07T10:27:18;10.30;;;10.30;;
50417;SDS011;36346;48.280;14.292;2023-05-07T10:32:39;9.14;;;9.14;;
50417;SDS011;36346;48.280;14.292;2023-05-07T10:35:17;9.63;;;9.63;;
50417;SDS011;36346;48.280;14.292;2023-05-07T10:37:49;8.78;;;8.78;;
50417;SDS011;36346;48.280;14.292;2023-05-07T10:40:20;8.12;;;8.12;;
50417;SDS011;36346;48.280;14.292;2023-05-07T10:42:57;8.51;;;8.51;;
50417;SDS011;36346;48.280;14.292;2023-05-07T10:45:31;9.34;;;9.34;;
50417;SDS011;36346;48.280;14.292;2023-05-07T10:48:09;9.54;;;9.54;;
50417;SDS011;36346;48.280;14.292;2023-05-07T10:51:18;9.23;;;9.23;;
50417;SDS011;36346;48.280;14.292;2023-05-07T10:56:50;9.24;;;9.24;;
50417;SDS011;36346;48.280;14.292;2023-05-07T10:59:30;9.25;;;9.25;;
50417;SDS011;36346;48.280;14.292;2023-05-07T11:02:07;10.00;;;10.00;;
50417;SDS011;36346;48.280;14.292;2023-05-07T11:08:06;8.15;;;8.15;;
50417;SDS011;36346;48.280;14.292;2023-05-07T11:13:48;7.73;;;7.73;;
50417;SDS011;36346;48.280;14.292;2023-05-07T11:16:29;7.71;;;7.71;;
50417;SDS011;36346;48.280;14.292;2023-05-07T11:19:06;7.09;;;7.09;;
50417;SDS011;36346;48.280;14.292;2023-05-07T11:21:40;6.45;;;6.45;;
50417;SDS011;36346;48.280;14.292;2023-05-07T11:24:18;7.22;;;7.22;;
50417;SDS011;36346;48.280;14.292;2023-05-07T11:26:57;7.09;;;7.09;;
50417;SDS011;36346;48.280;14.292;2023-05-07T11:29:27;6.94;;;6.94;;
50417;SDS011;36346;48.280;14.292;2023-05-07T11:32:05;7.08;;;7.08;;
50417;SDS011;36346;48.280;14.292;2023-05-07T11:34:40;6.78;;;6.78;;
50417;SDS011;36346;48.280;14.292;2023-05-07T11:37:08;7.73;;;7.73;;
50417;SDS011;36346;48.280;14.292;2023-05-07T11:40:04;6.96;;;6.96;;
50417;SDS011;36346;48.280;14.292;2023-05-07T11:42:35;7.02;;;7.02;;
50417;SDS011;36346;48.280;14.292;2023-05-07T11:45:07;6.38;;;6.38;;
50417;SDS011;36346;48.280;14.292;2023-05-07T11:47:36;6.71;;;6.71;;
50417;SDS011;36346;48.280;14.292;2023-05-07T11:50:06;7.22;;;7.22;;
50417;SDS011;36346;48.280;14.292;2023-05-07T11:52:35;6.99;;;6.99;;
50417;SDS011;36346;48.280;14.292;2023-05-07T11:55:04;7.06;;;7.06;;
50417;SDS011;36346;48.280;14.292;2023-05-07T11:57:32;6.63;;;6.63;;
50417;SDS011;36346;48.280;14.292;2023-05-07T12:00:01;6.94;;;6.94;;
50417;SDS011;36346;48.280;14.292;2023-05-07T12:02:41;7.25;;;7.25;;
50417;SDS011;36346;48.280;14.292;2023-05-07T12:05:09;7.25;;;7.25;;
50417;SDS011;36346;48.280;14.292;2023-05-07T12:07:38;8.17;;;8.17;;
50417;SDS011;36346;48.280;14.292;2023-05-07T12:10:06;7.14;;;7.14;;
50417;SDS011;36346;48.280;14.292;2023-05-07T12:12:38;6.56;;;6.56;;
50417;SDS011;36346;48.280;14.292;2023-05-07T12:15:08;6.70;;;6.70;;
50417;SDS011;36346;48.280;14.292;2023-05-07T12:17:36;6.31;;;6.31;;
50417;SDS011;36346;48.280;14.292;2023-05-07T12:20:05;7.16;;;7.16;;
50417;SDS011;36346;48.280;14.292;2023-05-07T12:22:35;7.13;;;7.13;;
50417;SDS011;36346;48.280;14.292;2023-05-07T12:25:03;7.09;;;7.09;;
50417;SDS011;36346;48.280;14.292;2023-05-07T12:27:31;6.72;;;6.72;;
50417;SDS011;36346;48.280;14.292;2023-05-07T12:29:59;6.53;;;6.53;;
50417;SDS011;36346;48.280;14.292;2023-05-07T12:32:27;7.05;;;7.05;;
50417;SDS011;36346;48.280;14.292;2023-05-07T12:34:55;7.39;;;7.39;;
50417;SDS011;36346;48.280;14.292;2023-05-07T12:37:24;7.79;;;7.79;;
50417;SDS011;36346;48.280;14.292;2023-05-07T12:42:36;8.26;;;8.26;;
50417;SDS011;36346;48.280;14.292;2023-05-07T12:45:11;7.45;;;7.45;;
50417;SDS011;36346;48.280;14.292;2023-05-07T12:47:44;7.69;;;7.69;;
50417;SDS011;36346;48.280;14.292;2023-05-07T12:50:13;7.44;;;7.44;;
50417;SDS011;36346;48.280;14.292;2023-05-07T12:52:44;7.20;;;7.20;;
50417;SDS011;36346;48.280;14.292;2023-05-07T12:55:16;7.14;;;7.14;;
50417;SDS011;36346;48.280;14.292;2023-05-07T12:57:48;6.84;;;6.84;;
50417;SDS011;36346;48.280;14.292;2023-05-07T13:00:18;6.79;;;6.79;;
50417;SDS011;36346;48.280;14.292;2023-05-07T13:03:01;6.51;;;6.51;;
50417;SDS011;36346;48.280;14.292;2023-05-07T13:05:30;6.80;;;6.80;;
50417;SDS011;36346;48.280;14.292;2023-05-07T13:07:59;6.53;;;6.53;;
50417;SDS011;36346;48.280;14.292;2023-05-07T13:10:27;6.58;;;6.58;;
50417;SDS011;36346;48.280;14.292;2023-05-07T13:12:56;6.57;;;6.57;;
50417;SDS011;36346;48.280;14.292;2023-05-07T13:15:24;6.38;;;6.38;;
50417;SDS011;36346;48.280;14.292;2023-05-07T13:17:52;6.63;;;6.63;;
50417;SDS011;36346;48.280;14.292;2023-05-07T13:20:20;5.94;;;5.94;;
50417;SDS011;36346;48.280;14.292;2023-05-07T13:22:47;6.06;;;6.06;;
50417;SDS011;36346;48.280;14.292;2023-05-07T13:25:15;6.24;;;6.24;;
50417;SDS011;36346;48.280;14.292;2023-05-07T13:27:43;6.14;;;6.14;;
50417;SDS011;36346;48.280;14.292;2023-05-07T13:30:13;5.87;;;5.87;;
50417;SDS011;36346;48.280;14.292;2023-05-07T13:32:41;5.73;;;5.73;;
50417;SDS011;36346;48.280;14.292;2023-05-07T13:35:09;6.21;;;6.21;;
50417;SDS011;36346;48.280;14.292;2023-05-07T13:37:37;6.42;;;6.42;;
50417;SDS011;36346;48.280;14.292;2023-05-07T13:40:05;5.93;;;5.93;;
50417;SDS011;36346;48.280;14.292;2023-05-07T13:42:34;5.92;;;5.92;;
50417;SDS011;36346;48.280;14.292;2023-05-07T13:45:02;6.15;;;6.15;;
50417;SDS011;36346;48.280;14.292;2023-05-07T13:47:31;5.90;;;5.90;;
50417;SDS011;36346;48.280;14.292;2023-05-07T13:49:59;5.60;;;5.60;;
50417;SDS011;36346;48.280;14.292;2023-05-07T13:52:27;5.66;;;5.66;;
50417;SDS011;36346;48.280;14.292;2023-05-07T13:54:55;5.73;;;5.73;;
50417;SDS011;36346;48.280;14.292;2023-05-07T13:57:24;6.29;;;6.29;;
50417;SDS011;36346;48.280;14.292;2023-05-07T13:59:52;6.04;;;6.04;;
50417;SDS011;36346;48.280;14.292;2023-05-07T14:02:20;5.88;;;5.88;;
50417;SDS011;36346;48.280;14.292;2023-05-07T14:04:48;5.90;;;5.90;;
50417;SDS011;36346;48.280;14.292;2023-05-07T14:07:16;5.71;;;5.71;;
50417;SDS011;36346;48.280;14.292;2023-05-07T14:09:44;6.00;;;6.00;;
50417;SDS011;36346;48.280;14.292;2023-05-07T14:12:12;6.10;;;6.10;;
50417;SDS011;36346;48.280;14.292;2023-05-07T14:14:40;5.78;;;5.78;;
50417;SDS011;36346;48.280;14.292;2023-05-07T14:17:08;6.30;;;6.30;;
50417;SDS011;36346;48.280;14.292;2023-05-07T14:19:37;6.43;;;6.43;;
50417;SDS011;36346;48.280;14.292;2023-05-07T14:22:05;6.69;;;6.69;;
50417;SDS011;36346;48.280;14.292;2023-05-07T14:24:33;6.74;;;6.74;;
50417;SDS011;36346;48.280;14.292;2023-05-07T14:27:05;6.60;;;6.60;;
50417;SDS011;36346;48.280;14.292;2023-05-07T14:29:34;6.87;;;6.87;;
50417;SDS011;36346;48.280;14.292;2023-05-07T14:32:03;7.03;;;7.03;;
50417;SDS011;36346;48.280;14.292;2023-05-07T14:34:31;7.10;;;7.10;;
50417;SDS011;36346;48.280;14.292;2023-05-07T14:37:00;7.20;;;7.20;;
50417;SDS011;36346;48.280;14.292;2023-05-07T14:39:28;7.73;;;7.73;;
50417;SDS011;36346;48.280;14.292;2023-05-07T14:41:56;7.36;;;7.36;;
50417;SDS011;36346;48.280;14.292;2023-05-07T14:44:24;8.87;;;8.87;;
50417;SDS011;36346;48.280;14.292;2023-05-07T14:46:53;7.68;;;7.68;;
50417;SDS011;36346;48.280;14.292;2023-05-07T14:49:21;7.19;;;7.19;;
50417;SDS011;36346;48.280;14.292;2023-05-07T14:51:49;7.17;;;7.17;;
50417;SDS011;36346;48.280;14.292;2023-05-07T14:54:17;7.90;;;7.90;;
50417;SDS011;36346;48.280;14.292;2023-05-07T14:56:45;7.84;;;7.84;;
50417;SDS011;36346;48.280;14.292;2023-05-07T14:59:13;6.63;;;6.63;;
50417;SDS011;36346;48.280;14.292;2023-05-07T15:01:43;6.45;;;6.45;;
50417;SDS011;36346;48.280;14.292;2023-05-07T15:04:13;6.52;;;6.52;;